Time;durP1;ratioP1;P1;durP2;ratioP2;P2;SDS_P1;SDS_P2;PMS_P1;PMS_P2;Temp;Humidity;BMP_temperature;BMP_pressure;BME280_temperature;BME280_humidity;BME280_pressure;Samples;Min_cycle;Max_cycle;Signal;HPM_P1;HPM_P2
2022/08/10 00:01:28;;;;;;;;;;;22.10;56.30;;;;;;5088109;28;19995;-58
2022/08/10 00:03:54;;;;;;;;;;;22.10;56.50;;;;;;5076853;28;19945;-67
2022/08/10 00:06:20;;;;;;;;;;;22.10;56.70;;;;;;5083598;28;19913;-67
2022/08/10 00:08:45;;;;;;;;;;;22.00;56.70;;;;;;5088370;28;19932;-58
2022/08/10 00:11:11;;;;;;;;;;;22.00;56.80;;;;;;5085682;28;20043;-59
2022/08/10 00:13:37;;;;;;;;;;;21.90;56.90;;;;;;5087576;28;19939;-59
2022/08/10 00:16:03;;;;;;;;;;;21.90;57.00;;;;;;5088739;28;19946;-59
2022/08/10 00:18:28;;;;;;;;;;;21.90;57.10;;;;;;5089809;28;19912;-59
2022/08/10 00:20:54;;;;;;;;;;;21.90;57.10;;;;;;5090898;28;19912;-59
2022/08/10 00:23:19;;;;;;;;;;;21.90;57.10;;;;;;5091035;28;20398;-59
2022/08/10 00:25:45;;;;;;;;;;;21.90;57.10;;;;;;5090981;28;19908;-68
2022/08/10 00:28:11;;;;;;;;;;;21.80;57.30;;;;;;5089153;28;20286;-68
2022/08/10 00:30:36;;;;;;;;;;;21.80;57.30;;;;;;5093116;28;20011;-59
2022/08/10 00:33:02;;;;;;;;;;;21.80;57.30;;;;;;5098876;28;19944;-59
2022/08/10 00:35:27;;;;;;;;;;;21.80;57.50;;;;;;5111565;28;19918;-59
2022/08/10 00:37:53;;;;;;;;;;;21.80;57.60;;;;;;5105292;28;19924;-59
2022/08/10 00:40:18;;;;;;;;;;;21.80;57.60;;;;;;5103301;28;19922;-59
2022/08/10 00:42:44;;;;;;;;;;;21.80;57.50;;;;;;5101470;28;19927;-59
2022/08/10 00:45:10;;;;;;;;;;;21.80;57.70;;;;;;5093944;28;19968;-62
2022/08/10 00:47:35;;;;;;;;;;;21.80;57.70;;;;;;5108139;28;20322;-59
2022/08/10 00:50:01;;;;;;;;;;;21.80;57.60;;;;;;5083824;28;19912;-68
2022/08/10 00:52:28;;;;;;;;;;;21.80;57.60;;;;;;5104407;28;19915;-69
2022/08/10 00:54:57;;;;;;;;;;;21.80;57.60;;;;;;5078365;28;19959;-68
2022/08/10 00:57:24;;;;;;;;;;;21.80;57.70;;;;;;5097211;28;20355;-68
2022/08/10 00:59:50;;;;;;;;;;;21.70;57.80;;;;;;5104067;28;19919;-69
2022/08/10 01:02:15;;;;;;;;;;;21.70;58.00;;;;;;5092106;28;19939;-68
2022/08/10 01:04:41;;;;;;;;;;;21.60;58.10;;;;;;5085131;28;19920;-60
2022/08/10 01:07:12;;;;;;;;;;;21.60;58.30;;;;;;5090124;28;19964;-58
2022/08/10 01:09:41;;;;;;;;;;;21.60;58.30;;;;;;5092038;28;19918;-58
2022/08/10 01:12:09;;;;;;;;;;;21.50;58.30;;;;;;5097942;28;19965;-67
2022/08/10 01:14:45;;;;;;;;;;;21.50;58.30;;;;;;5088872;28;20120;-67
2022/08/10 01:17:14;;;;;;;;;;;21.40;58.50;;;;;;5089170;28;19936;-67
2022/08/10 01:20:18;;;;;;;;;;;21.40;58.60;;;;;;5087761;28;19938;-68
2022/08/10 01:22:58;;;;;;;;;;;21.30;58.70;;;;;;5026481;28;19913;-59
2022/08/10 01:25:36;;;;;;;;;;;21.30;58.80;;;;;;5025756;28;19972;-59
2022/08/10 01:28:04;;;;;;;;;;;21.30;59.00;;;;;;5065957;28;20481;-59
2022/08/10 01:30:31;;;;;;;;;;;21.20;59.20;;;;;;5090081;28;19916;-59
2022/08/10 01:33:10;;;;;;;;;;;21.20;59.30;;;;;;5092774;28;19912;-59
2022/08/10 01:35:45;;;;;;;;;;;21.20;59.50;;;;;;5092236;28;20155;-68
2022/08/10 01:38:19;;;;;;;;;;;21.20;59.50;;;;;;5090318;28;19919;-59
2022/08/10 01:40:52;;;;;;;;;;;21.20;59.50;;;;;;5084828;28;19917;-59
2022/08/10 01:43:18;;;;;;;;;;;21.10;59.60;;;;;;5099153;28;20274;-68
2022/08/10 01:45:45;;;;;;;;;;;21.10;59.70;;;;;;5083727;28;19916;-60
2022/08/10 01:48:30;;;;;;;;;;;21.10;59.70;;;;;;5093779;28;20381;-59
2022/08/10 01:50:59;;;;;;;;;;;21.10;59.90;;;;;;5103833;28;19912;-60
2022/08/10 01:53:26;;;;;;;;;;;21.10;60.10;;;;;;5083438;28;19919;-68
2022/08/10 01:55:53;;;;;;;;;;;21.00;60.00;;;;;;5109965;28;19927;-60
2022/08/10 01:58:19;;;;;;;;;;;21.00;60.00;;;;;;5105552;28;19916;-59
2022/08/10 02:00:46;;;;;;;;;;;21.00;60.10;;;;;;5086922;28;19912;-68
2022/08/10 02:03:13;;;;;;;;;;;21.00;60.20;;;;;;5096793;28;19916;-68
2022/08/10 02:05:39;;;;;;;;;;;20.90;60.40;;;;;;5109722;28;19912;-69
2022/08/10 02:08:07;;;;;;;;;;;20.90;60.40;;;;;;5108708;28;20262;-59
2022/08/10 02:10:34;;;;;;;;;;;20.90;60.60;;;;;;5097278;28;19916;-68
2022/08/10 02:13:00;;;;;;;;;;;20.80;60.70;;;;;;5107380;28;20725;-68
2022/08/10 02:15:29;;;;;;;;;;;20.70;60.70;;;;;;5109452;28;19916;-59
2022/08/10 02:17:58;;;;;;;;;;;20.70;61.00;;;;;;5101184;28;20360;-59
2022/08/10 02:20:25;;;;;;;;;;;20.70;61.20;;;;;;5098919;28;20354;-59
2022/08/10 02:22:58;;;;;;;;;;;20.70;61.30;;;;;;5091984;28;20386;-59
2022/08/10 02:25:24;;;;;;;;;;;20.70;61.30;;;;;;5107072;28;20284;-60
2022/08/10 02:27:51;;;;;;;;;;;20.60;61.30;;;;;;5103428;28;19937;-60
2022/08/10 02:30:17;;;;;;;;;;;20.70;61.60;;;;;;5101197;28;20006;-59
2022/08/10 02:32:44;;;;;;;;;;;20.60;61.60;;;;;;5103928;28;19927;-59
2022/08/10 02:35:10;;;;;;;;;;;20.60;61.80;;;;;;5102363;28;19911;-59
2022/08/10 02:37:37;;;;;;;;;;;20.50;61.90;;;;;;5113981;28;19918;-59
2022/08/10 02:40:03;;;;;;;;;;;20.50;62.00;;;;;;5113654;28;19907;-60
2022/08/10 02:42:41;;;;;;;;;;;20.50;62.00;;;;;;5097424;28;19973;-60
2022/08/10 02:45:11;;;;;;;;;;;20.40;61.90;;;;;;5092466;28;19915;-59
2022/08/10 02:47:56;;;;;;;;;;;20.40;62.10;;;;;;5097732;28;20279;-69
2022/08/10 02:50:33;;;;;;;;;;;20.40;62.40;;;;;;5087496;28;20404;-68
2022/08/10 02:53:18;;;;;;;;;;;20.30;62.40;;;;;;5107485;28;19912;-69
2022/08/10 02:55:50;;;;;;;;;;;20.30;62.50;;;;;;5111984;28;20326;-69
2022/08/10 02:58:24;;;;;;;;;;;20.30;62.60;;;;;;5087511;28;19934;-68
2022/08/10 03:00:55;;;;;;;;;;;20.30;62.70;;;;;;5093504;28;19923;-68
2022/08/10 03:03:25;;;;;;;;;;;20.30;62.80;;;;;;5097731;28;19944;-60
2022/08/10 03:05:55;;;;;;;;;;;20.30;63.00;;;;;;5105580;28;19908;-68
2022/08/10 03:08:23;;;;;;;;;;;20.30;63.10;;;;;;5089221;28;20375;-68
2022/08/10 03:10:49;;;;;;;;;;;20.30;63.10;;;;;;5091716;28;19912;-68
2022/08/10 03:13:15;;;;;;;;;;;20.20;63.10;;;;;;5095287;28;19920;-59
2022/08/10 03:15:41;;;;;;;;;;;20.20;63.40;;;;;;5091539;28;20000;-59
2022/08/10 03:18:07;;;;;;;;;;;20.20;63.70;;;;;;5096556;28;20367;-69
2022/08/10 03:20:37;;;;;;;;;;;20.10;63.80;;;;;;5108890;28;19919;-68
2022/08/10 03:23:04;;;;;;;;;;;20.10;64.00;;;;;;5094208;28;20286;-59
2022/08/10 03:25:30;;;;;;;;;;;20.00;64.00;;;;;;5097659;28;19919;-68
2022/08/10 03:27:56;;;;;;;;;;;20.00;63.90;;;;;;5099049;28;19969;-68
2022/08/10 03:30:22;;;;;;;;;;;20.00;64.10;;;;;;5102681;28;19924;-68
2022/08/10 03:32:48;;;;;;;;;;;20.00;64.10;;;;;;5106993;28;20057;-68
2022/08/10 03:35:14;;;;;;;;;;;20.00;64.30;;;;;;5104953;28;19946;-68
2022/08/10 03:37:39;;;;;;;;;;;19.90;64.30;;;;;;5112075;28;19944;-68
2022/08/10 03:40:06;;;;;;;;;;;19.90;64.30;;;;;;5111819;28;19961;-68
2022/08/10 03:42:32;;;;;;;;;;;19.90;64.50;;;;;;5107386;28;20597;-59
2022/08/10 03:44:58;;;;;;;;;;;19.90;64.80;;;;;;5111794;28;19951;-69
2022/08/10 03:47:25;;;;;;;;;;;19.90;65.00;;;;;;5101165;28;19927;-60
2022/08/10 03:49:51;;;;;;;;;;;19.90;65.00;;;;;;5111596;28;19908;-60
2022/08/10 03:52:17;;;;;;;;;;;19.90;65.00;;;;;;5090987;28;20363;-68
2022/08/10 03:54:43;;;;;;;;;;;19.90;65.00;;;;;;5102030;28;19938;-69
2022/08/10 03:57:09;;;;;;;;;;;19.90;65.30;;;;;;5090498;28;19920;-68
2022/08/10 03:59:35;;;;;;;;;;;19.80;65.40;;;;;;5104348;28;19912;-68
2022/08/10 04:02:02;;;;;;;;;;;19.80;65.40;;;;;;5097619;28;20329;-68
2022/08/10 04:04:27;;;;;;;;;;;19.80;65.60;;;;;;5094502;28;19908;-68
2022/08/10 04:06:54;;;;;;;;;;;19.80;65.70;;;;;;5101632;28;19915;-68
2022/08/10 04:09:20;;;;;;;;;;;19.80;65.90;;;;;;5089465;28;19916;-69
2022/08/10 04:11:45;;;;;;;;;;;19.80;66.00;;;;;;5087923;28;20002;-68
2022/08/10 04:14:11;;;;;;;;;;;19.70;66.00;;;;;;5090203;28;19973;-68
2022/08/10 04:16:36;;;;;;;;;;;19.70;66.00;;;;;;5091368;28;19962;-68
2022/08/10 04:19:02;;;;;;;;;;;19.70;66.10;;;;;;5090131;28;19912;-68
2022/08/10 04:21:36;;;;;;;;;;;19.70;66.10;;;;;;5087278;28;20299;-68
2022/08/10 04:24:03;;;;;;;;;;;19.70;66.30;;;;;;5089430;28;19912;-60
2022/08/10 04:26:29;;;;;;;;;;;19.60;66.20;;;;;;5090340;28;19915;-60
2022/08/10 04:28:55;;;;;;;;;;;19.70;66.40;;;;;;5081121;28;19924;-67
2022/08/10 04:31:21;;;;;;;;;;;19.60;66.40;;;;;;5098567;28;19916;-59
2022/08/10 04:33:48;;;;;;;;;;;19.60;66.40;;;;;;5095500;28;19908;-67
2022/08/10 04:36:15;;;;;;;;;;;19.60;66.40;;;;;;5090528;28;19959;-68
2022/08/10 04:38:42;;;;;;;;;;;19.70;66.60;;;;;;5090039;28;20377;-67
2022/08/10 04:41:07;;;;;;;;;;;19.70;66.70;;;;;;5090771;28;20456;-67
2022/08/10 04:43:33;;;;;;;;;;;19.70;66.70;;;;;;5087382;28;19953;-68
2022/08/10 04:45:59;;;;;;;;;;;19.70;66.60;;;;;;5079786;28;19988;-59
2022/08/10 04:48:24;;;;;;;;;;;19.80;66.70;;;;;;5089358;28;19916;-69
2022/08/10 04:50:50;;;;;;;;;;;19.80;66.80;;;;;;5087582;28;19916;-59
2022/08/10 04:53:16;;;;;;;;;;;19.80;66.70;;;;;;5087637;28;20001;-59
2022/08/10 04:55:41;;;;;;;;;;;19.80;67.00;;;;;;5088515;28;19966;-58
2022/08/10 04:58:07;;;;;;;;;;;19.80;66.80;;;;;;5089290;28;19923;-69
2022/08/10 05:00:32;;;;;;;;;;;19.80;66.60;;;;;;5087174;28;19920;-69
2022/08/10 05:02:58;;;;;;;;;;;19.80;66.60;;;;;;5078322;28;19920;-59
2022/08/10 05:05:23;;;;;;;;;;;19.90;66.60;;;;;;5084463;28;19916;-59
2022/08/10 05:07:49;;;;;;;;;;;19.90;66.60;;;;;;5088376;28;20101;-68
2022/08/10 05:10:14;;;;;;;;;;;20.00;66.90;;;;;;5088434;28;19935;-68
2022/08/10 05:12:40;;;;;;;;;;;20.00;66.70;;;;;;5078517;28;19920;-58
2022/08/10 05:15:09;;;;;;;;;;;20.10;66.60;;;;;;5085218;28;19920;-58
2022/08/10 05:17:35;;;;;;;;;;;20.10;66.70;;;;;;5098879;28;20267;-59
2022/08/10 05:20:04;;;;;;;;;;;20.10;66.70;;;;;;5101263;28;20005;-58
2022/08/10 05:22:30;;;;;;;;;;;20.10;66.70;;;;;;5099482;28;19922;-58
2022/08/10 05:24:55;;;;;;;;;;;20.20;66.70;;;;;;5095533;28;19916;-58
2022/08/10 05:27:21;;;;;;;;;;;20.20;66.70;;;;;;5101502;28;19919;-68
2022/08/10 05:29:46;;;;;;;;;;;20.20;66.60;;;;;;5096688;28;19931;-59
2022/08/10 05:32:12;;;;;;;;;;;20.30;66.50;;;;;;5107657;28;19924;-69
2022/08/10 05:34:37;;;;;;;;;;;20.30;66.30;;;;;;5101893;28;20678;-69
2022/08/10 05:37:04;;;;;;;;;;;20.40;66.20;;;;;;5090532;27;19915;-58
2022/08/10 05:39:30;;;;;;;;;;;20.50;66.00;;;;;;5082625;28;19939;-58
2022/08/10 05:41:56;;;;;;;;;;;20.60;66.00;;;;;;5083880;28;19920;-68
2022/08/10 05:44:23;;;;;;;;;;;20.60;65.90;;;;;;5080027;28;19927;-68
2022/08/10 05:46:48;;;;;;;;;;;20.70;66.00;;;;;;5080947;28;19917;-68
2022/08/10 05:49:14;;;;;;;;;;;20.60;65.90;;;;;;5081783;28;20294;-68
2022/08/10 05:51:40;;;;;;;;;;;20.70;66.00;;;;;;5082101;28;19935;-69
2022/08/10 05:54:13;;;;;;;;;;;20.80;65.90;;;;;;5062838;28;20119;-68
2022/08/10 05:56:40;;;;;;;;;;;20.80;65.70;;;;;;5080402;28;20010;-68
2022/08/10 05:59:05;;;;;;;;;;;20.90;65.50;;;;;;5080622;28;20451;-68
2022/08/10 06:01:33;;;;;;;;;;;20.90;65.30;;;;;;5090003;28;19931;-59
2022/08/10 06:03:59;;;;;;;;;;;21.00;65.30;;;;;;5090254;28;19950;-58
2022/08/10 06:06:26;;;;;;;;;;;21.00;65.20;;;;;;5087799;28;19920;-58
2022/08/10 06:08:52;;;;;;;;;;;21.10;65.20;;;;;;5095130;28;20016;-68
2022/08/10 06:11:18;;;;;;;;;;;21.10;65.10;;;;;;5085399;28;19916;-68
2022/08/10 06:16:31;;;;;;;;;;;21.30;64.80;;;;;;5087660;28;19941;-59
2022/08/10 06:18:57;;;;;;;;;;;21.40;64.60;;;;;;5094273;28;19912;-68
2022/08/10 06:21:23;;;;;;;;;;;21.50;64.50;;;;;;5093392;28;19916;-68
2022/08/10 06:23:49;;;;;;;;;;;21.50;64.30;;;;;;5083908;28;19939;-68
2022/08/10 06:26:14;;;;;;;;;;;21.60;64.20;;;;;;5089279;28;19920;-58
2022/08/10 06:29:05;;;;;;;;;;;21.60;64.00;;;;;;5082506;28;20001;-68
2022/08/10 06:31:33;;;;;;;;;;;21.70;64.00;;;;;;5086215;28;19973;-68
2022/08/10 06:33:59;;;;;;;;;;;21.70;63.70;;;;;;5085412;28;19959;-59
2022/08/10 06:36:26;;;;;;;;;;;21.80;63.30;;;;;;5082150;28;21298;-59
2022/08/10 06:38:52;;;;;;;;;;;22.00;63.10;;;;;;5096171;28;19912;-58
2022/08/10 06:41:22;;;;;;;;;;;22.10;62.70;;;;;;5089609;28;19916;-59
2022/08/10 06:44:02;;;;;;;;;;;22.20;62.40;;;;;;5087707;28;19982;-59
2022/08/10 06:46:29;;;;;;;;;;;22.20;62.20;;;;;;5082385;28;19911;-69
2022/08/10 06:48:58;;;;;;;;;;;22.30;62.00;;;;;;5083869;28;19932;-69
2022/08/10 06:51:35;;;;;;;;;;;22.40;61.80;;;;;;5081512;28;20053;-70
2022/08/10 06:54:03;;;;;;;;;;;22.50;61.50;;;;;;5081567;28;19912;-60
2022/08/10 06:56:32;;;;;;;;;;;22.50;61.30;;;;;;5083002;28;19928;-56
2022/08/10 06:58:59;;;;;;;;;;;22.60;61.00;;;;;;5079396;28;21654;-70
2022/08/10 07:01:27;;;;;;;;;;;22.70;60.50;;;;;;5077875;28;19917;-69
2022/08/10 07:04:01;;;;;;;;;;;22.70;60.20;;;;;;5085191;28;19962;-70
2022/08/10 07:06:28;;;;;;;;;;;22.70;60.20;;;;;;5083739;28;19912;-69
2022/08/10 07:08:54;;;;;;;;;;;22.80;60.00;;;;;;5089688;28;19912;-70
2022/08/10 07:11:20;;;;;;;;;;;22.90;59.90;;;;;;5085225;28;19923;-69
2022/08/10 07:13:46;;;;;;;;;;;23.00;59.70;;;;;;5084251;28;19919;-69
2022/08/10 07:16:13;;;;;;;;;;;23.10;59.40;;;;;;5084722;28;19920;-70
2022/08/10 07:18:40;;;;;;;;;;;23.20;59.10;;;;;;5089857;28;20378;-60
2022/08/10 07:21:06;;;;;;;;;;;23.20;58.90;;;;;;5083068;28;20434;-59
2022/08/10 07:23:33;;;;;;;;;;;23.30;58.70;;;;;;5089960;28;19957;-59
2022/08/10 07:25:59;;;;;;;;;;;23.40;58.50;;;;;;5089133;28;19919;-60
2022/08/10 07:28:26;;;;;;;;;;;23.50;58.20;;;;;;5086140;28;20243;-60
2022/08/10 07:30:52;;;;;;;;;;;23.60;58.00;;;;;;5094117;28;20003;-69
2022/08/10 07:33:19;;;;;;;;;;;23.70;57.70;;;;;;5091463;28;19909;-69
2022/08/10 07:35:46;;;;;;;;;;;23.80;57.40;;;;;;5088526;28;19957;-59
2022/08/10 07:38:20;;;;;;;;;;;23.90;57.20;;;;;;5082377;28;21233;-59
2022/08/10 07:40:47;;;;;;;;;;;24.00;57.10;;;;;;5084426;28;19916;-59
2022/08/10 07:43:14;;;;;;;;;;;24.10;56.80;;;;;;5097316;28;19943;-69
2022/08/10 07:45:40;;;;;;;;;;;24.20;56.70;;;;;;5089019;28;19916;-69
2022/08/10 07:48:10;;;;;;;;;;;24.20;56.10;;;;;;5090547;28;19935;-69
2022/08/10 07:50:37;;;;;;;;;;;24.30;56.00;;;;;;5085682;28;20026;-69
2022/08/10 07:53:06;;;;;;;;;;;24.40;55.90;;;;;;5082786;28;19967;-70
2022/08/10 07:55:32;;;;;;;;;;;24.50;55.70;;;;;;5083692;28;20282;-60
2022/08/10 07:57:59;;;;;;;;;;;24.60;55.70;;;;;;5085472;28;19924;-69
2022/08/10 08:00:26;;;;;;;;;;;24.70;55.50;;;;;;5085885;28;20371;-69
2022/08/10 08:02:55;;;;;;;;;;;24.70;55.30;;;;;;5089265;28;20167;-69
2022/08/10 08:05:23;;;;;;;;;;;24.90;55.20;;;;;;5089065;28;20389;-59
2022/08/10 08:07:49;;;;;;;;;;;24.90;54.90;;;;;;5089389;28;20450;-59
2022/08/10 08:10:16;;;;;;;;;;;25.00;54.50;;;;;;5088846;28;20366;-69
2022/08/10 08:12:43;;;;;;;;;;;25.10;54.40;;;;;;5090842;28;19931;-69
2022/08/10 08:15:10;;;;;;;;;;;25.20;54.20;;;;;;5086988;28;20022;-69
2022/08/10 08:17:36;;;;;;;;;;;25.30;53.90;;;;;;5093855;28;19922;-69
2022/08/10 08:20:02;;;;;;;;;;;25.30;53.90;;;;;;5090278;28;19908;-69
2022/08/10 08:22:28;;;;;;;;;;;25.40;53.90;;;;;;5094338;28;20370;-59
2022/08/10 08:24:57;;;;;;;;;;;25.50;53.30;;;;;;5088117;28;20815;-59
2022/08/10 08:27:23;;;;;;;;;;;25.60;53.20;;;;;;5086066;28;19935;-59
2022/08/10 08:29:51;;;;;;;;;;;25.70;53.10;;;;;;5082368;28;20405;-60
2022/08/10 08:32:22;;;;;;;;;;;25.80;52.90;;;;;;5078551;28;19967;-59
2022/08/10 08:34:49;;;;;;;;;;;25.90;52.70;;;;;;5085800;28;19917;-67
2022/08/10 08:37:16;;;;;;;;;;;26.00;51.70;;;;;;5076574;28;19923;-66
2022/08/10 08:39:42;;;;;;;;;;;26.10;51.90;;;;;;5090997;28;19923;-65
2022/08/10 08:42:13;;;;;;;;;;;26.10;51.80;;;;;;5091479;28;19961;-65
2022/08/10 08:44:49;;;;;;;;;;;26.20;51.60;;;;;;5081842;28;20336;-65
2022/08/10 08:47:24;;;;;;;;;;;26.30;51.60;;;;;;5087579;28;19923;-64
2022/08/10 08:50:08;;;;;;;;;;;26.50;51.40;;;;;;5087022;28;20321;-57
2022/08/10 08:52:52;;;;;;;;;;;26.60;50.90;;;;;;5085497;28;19915;-57
2022/08/10 08:55:24;;;;;;;;;;;26.70;50.60;;;;;;5080857;28;20326;-57
2022/08/10 08:58:03;;;;;;;;;;;26.80;50.60;;;;;;5087583;28;20388;-57
2022/08/10 09:00:51;;;;;;;;;;;27.00;50.30;;;;;;5087325;28;19919;-57
2022/08/10 09:03:19;;;;;;;;;;;27.10;50.10;;;;;;5087011;28;20402;-57
2022/08/10 09:05:45;;;;;;;;;;;27.20;49.60;;;;;;5081268;28;19920;-64
2022/08/10 09:08:29;;;;;;;;;;;27.20;49.60;;;;;;5085621;28;19920;-65
2022/08/10 09:11:07;;;;;;;;;;;27.30;49.70;;;;;;5084845;28;20598;-65
2022/08/10 09:13:49;;;;;;;;;;;27.40;48.90;;;;;;5089731;28;19927;-67
2022/08/10 09:16:14;;;;;;;;;;;27.50;48.70;;;;;;5080027;28;19922;-66
2022/08/10 09:18:46;;;;;;;;;;;27.70;48.70;;;;;;5086293;28;19920;-66
2022/08/10 09:21:16;;;;;;;;;;;27.80;48.50;;;;;;5080940;28;19924;-58
2022/08/10 09:24:03;;;;;;;;;;;27.80;48.30;;;;;;5080698;28;20285;-58
2022/08/10 09:26:45;;;;;;;;;;;28.00;48.20;;;;;;5079888;28;19912;-58
2022/08/10 09:29:13;;;;;;;;;;;28.10;47.90;;;;;;5079319;28;19924;-58
2022/08/10 09:31:44;;;;;;;;;;;28.30;47.80;;;;;;5077516;28;19947;-58
2022/08/10 09:34:18;;;;;;;;;;;28.30;47.60;;;;;;5087495;28;19916;-58
2022/08/10 09:36:59;;;;;;;;;;;28.40;47.20;;;;;;5073873;28;19913;-58
2022/08/10 09:39:25;;;;;;;;;;;28.50;47.10;;;;;;5083375;28;19992;-66
2022/08/10 09:41:50;;;;;;;;;;;28.60;46.40;;;;;;5083711;28;19912;-66
2022/08/10 09:44:28;;;;;;;;;;;28.70;46.40;;;;;;5083890;28;19923;-67
2022/08/10 09:46:59;;;;;;;;;;;28.70;46.40;;;;;;5082532;28;19920;-66
2022/08/10 09:49:47;;;;;;;;;;;28.80;45.50;;;;;;5081994;28;19920;-66
2022/08/10 09:52:28;;;;;;;;;;;28.80;45.70;;;;;;5083368;28;19937;-66
2022/08/10 09:55:12;;;;;;;;;;;29.00;45.80;;;;;;5081549;28;21354;-66
2022/08/10 09:57:42;;;;;;;;;;;29.00;45.60;;;;;;5086061;28;19931;-66
2022/08/10 10:00:12;;;;;;;;;;;29.20;45.50;;;;;;5080643;28;20032;-66
2022/08/10 10:02:56;;;;;;;;;;;29.30;45.10;;;;;;5079512;28;19984;-66
2022/08/10 10:05:45;;;;;;;;;;;29.40;45.10;;;;;;5082857;28;19923;-58
2022/08/10 10:08:29;;;;;;;;;;;29.40;44.70;;;;;;5047493;28;19931;-58
2022/08/10 10:11:14;;;;;;;;;;;29.50;44.50;;;;;;5081717;28;19916;-59
2022/08/10 10:13:53;;;;;;;;;;;29.60;44.60;;;;;;5076471;28;19916;-59
2022/08/10 10:16:37;;;;;;;;;;;29.70;44.50;;;;;;5083201;28;19927;-58
2022/08/10 10:19:21;;;;;;;;;;;29.80;43.60;;;;;;5083690;28;19924;-59
2022/08/10 10:22:07;;;;;;;;;;;29.90;43.90;;;;;;5076121;28;19912;-58
2022/08/10 10:24:46;;;;;;;;;;;30.00;43.50;;;;;;5067629;28;19916;-59
2022/08/10 10:27:23;;;;;;;;;;;30.10;42.90;;;;;;5080473;28;19916;-59
2022/08/10 10:30:01;;;;;;;;;;;30.30;43.00;;;;;;5078443;28;20006;-59
2022/08/10 10:32:45;;;;;;;;;;;30.30;42.60;;;;;;5090886;28;20355;-66
2022/08/10 10:35:22;;;;;;;;;;;30.40;42.60;;;;;;5078886;28;20703;-67
2022/08/10 10:37:50;;;;;;;;;;;30.50;42.50;;;;;;5093826;28;19920;-66
2022/08/10 10:40:16;;;;;;;;;;;30.70;42.20;;;;;;5084793;28;19916;-67
2022/08/10 10:42:44;;;;;;;;;;;30.80;40.90;;;;;;5083059;28;19916;-67
2022/08/10 10:45:10;;;;;;;;;;;30.80;40.70;;;;;;5093175;28;19977;-66
2022/08/10 10:47:45;;;;;;;;;;;30.80;40.90;;;;;;5093140;28;19916;-67
2022/08/10 10:50:21;;;;;;;;;;;31.00;41.30;;;;;;5107402;27;19915;-66
2022/08/10 10:52:59;;;;;;;;;;;31.20;40.40;;;;;;5102534;28;19928;-66
2022/08/10 10:55:28;;;;;;;;;;;31.30;40.00;;;;;;5096895;28;19912;-65
2022/08/10 10:57:58;;;;;;;;;;;31.50;39.90;;;;;;5089261;28;19995;-68
2022/08/10 11:00:26;;;;;;;;;;;31.50;39.50;;;;;;5095622;28;19912;-68
2022/08/10 11:03:11;;;;;;;;;;;31.50;39.30;;;;;;5087648;28;20387;-59
2022/08/10 11:05:39;;;;;;;;;;;31.70;39.10;;;;;;5084089;28;20796;-59
2022/08/10 11:08:14;;;;;;;;;;;31.80;39.10;;;;;;5083021;28;20642;-68
2022/08/10 11:10:45;;;;;;;;;;;31.90;38.60;;;;;;5083933;28;19962;-68
2022/08/10 11:13:14;;;;;;;;;;;32.00;38.60;;;;;;5086974;28;19931;-59
2022/08/10 11:15:41;;;;;;;;;;;32.10;38.00;;;;;;5087278;28;19919;-59
2022/08/10 11:18:10;;;;;;;;;;;32.20;38.10;;;;;;5089136;28;19942;-59
2022/08/10 11:20:54;;;;;;;;;;;32.20;37.60;;;;;;5088386;28;19923;-59
2022/08/10 11:23:35;;;;;;;;;;;32.30;37.40;;;;;;5088842;28;20295;-59
2022/08/10 11:26:10;;;;;;;;;;;32.30;37.60;;;;;;5085659;28;19923;-59
2022/08/10 11:28:39;;;;;;;;;;;32.50;37.80;;;;;;5087702;28;19920;-68
2022/08/10 11:31:14;;;;;;;;;;;32.70;37.80;;;;;;5092518;28;19912;-59
2022/08/10 11:33:42;;;;;;;;;;;32.90;37.90;;;;;;5085619;28;20270;-59
2022/08/10 11:36:15;;;;;;;;;;;33.10;37.60;;;;;;5092456;28;19916;-59
2022/08/10 11:38:45;;;;;;;;;;;33.20;36.40;;;;;;5098258;28;19978;-59
2022/08/10 11:41:31;;;;;;;;;;;33.30;36.50;;;;;;5081722;28;20738;-59
2022/08/10 11:44:17;;;;;;;;;;;33.50;36.50;;;;;;5076612;28;19927;-59
2022/08/10 11:46:52;;;;;;;;;;;33.60;36.10;;;;;;5100481;28;19946;-60
2022/08/10 11:49:30;;;;;;;;;;;33.60;36.30;;;;;;5082818;28;19916;-60
2022/08/10 11:51:59;;;;;;;;;;;33.80;36.00;;;;;;5090661;28;19989;-59
2022/08/10 11:54:28;;;;;;;;;;;33.90;35.70;;;;;;5089962;28;19919;-59
2022/08/10 11:56:55;;;;;;;;;;;34.00;35.30;;;;;;5091370;28;19967;-59
2022/08/10 12:02:07;;;;;;;;;;;34.10;35.30;;;;;;5081119;28;19923;-60
2022/08/10 12:04:34;;;;;;;;;;;34.30;34.80;;;;;;5083991;28;19927;-59
2022/08/10 12:07:03;;;;;;;;;;;34.40;34.30;;;;;;5084291;28;19922;-59
2022/08/10 12:09:30;;;;;;;;;;;34.40;33.60;;;;;;5085813;28;19920;-60
2022/08/10 12:11:58;;;;;;;;;;;34.40;32.90;;;;;;5089766;28;21368;-59
2022/08/10 12:14:27;;;;;;;;;;;34.40;33.10;;;;;;5088903;28;20398;-59
2022/08/10 12:17:02;;;;;;;;;;;34.40;33.10;;;;;;5086357;28;19942;-68
2022/08/10 12:19:40;;;;;;;;;;;34.60;33.30;;;;;;5087607;28;19913;-60
2022/08/10 12:22:15;;;;;;;;;;;34.80;33.40;;;;;;5080039;28;19920;-59
2022/08/10 12:24:44;;;;;;;;;;;35.00;33.30;;;;;;5087784;28;20389;-59
2022/08/10 12:27:12;;;;;;;;;;;35.20;33.10;;;;;;5086319;28;20003;-60
2022/08/10 12:30:05;;;;;;;;;;;35.30;32.90;;;;;;5086015;28;19981;-69
2022/08/10 12:32:45;;;;;;;;;;;35.40;33.10;;;;;;5076636;28;20268;-69
2022/08/10 12:35:17;;;;;;;;;;;35.50;32.90;;;;;;5087990;28;20362;-60
2022/08/10 12:37:45;;;;;;;;;;;35.70;32.60;;;;;;5089333;28;20306;-60
2022/08/10 12:40:18;;;;;;;;;;;35.80;32.20;;;;;;5093245;28;20366;-60
2022/08/10 12:43:02;;;;;;;;;;;35.90;31.90;;;;;;5085165;28;20053;-60
2022/08/10 12:45:33;;;;;;;;;;;35.80;32.10;;;;;;5092991;28;19918;-60
2022/08/10 12:47:59;;;;;;;;;;;35.90;32.10;;;;;;5082821;28;20010;-60
2022/08/10 12:50:47;;;;;;;;;;;36.10;32.30;;;;;;5092367;28;19916;-60
2022/08/10 12:53:25;;;;;;;;;;;36.10;31.40;;;;;;5081574;28;19916;-61
2022/08/10 12:55:51;;;;;;;;;;;36.10;31.70;;;;;;5086560;28;19924;-60
2022/08/10 12:58:18;;;;;;;;;;;36.10;31.50;;;;;;5084569;28;19931;-60
2022/08/10 13:00:44;;;;;;;;;;;36.30;31.70;;;;;;5087311;28;20311;-61
2022/08/10 13:03:11;;;;;;;;;;;36.40;31.40;;;;;;5086094;28;19927;-59
2022/08/10 13:05:36;;;;;;;;;;;36.60;31.10;;;;;;5092381;28;19920;-59
2022/08/10 13:10:51;;;;;;;;;;;36.70;30.50;;;;;;5084501;28;19958;-67
2022/08/10 13:13:19;;;;;;;;;;;36.70;30.50;;;;;;5090530;28;20441;-67
2022/08/10 13:15:46;;;;;;;;;;;36.80;30.80;;;;;;5091255;28;19919;-59
2022/08/10 13:18:13;;;;;;;;;;;36.90;30.40;;;;;;5079091;28;19912;-59
2022/08/10 13:20:39;;;;;;;;;;;37.00;30.40;;;;;;5086374;28;20003;-59
2022/08/10 13:23:17;;;;;;;;;;;37.00;30.30;;;;;;5087377;28;19996;-58
2022/08/10 13:25:44;;;;;;;;;;;37.20;30.00;;;;;;5088734;28;20010;-59
2022/08/10 13:28:10;;;;;;;;;;;37.10;30.00;;;;;;5085307;28;19920;-59
2022/08/10 13:30:38;;;;;;;;;;;37.10;30.10;;;;;;5082425;28;19908;-59
2022/08/10 13:33:04;;;;;;;;;;;37.10;29.80;;;;;;5083185;28;19912;-68
2022/08/10 13:35:30;;;;;;;;;;;37.10;29.50;;;;;;5086094;28;19912;-68
2022/08/10 13:37:57;;;;;;;;;;;37.00;29.40;;;;;;5079770;28;19924;-67
2022/08/10 13:40:24;;;;;;;;;;;36.90;29.70;;;;;;5077199;28;19950;-68
2022/08/10 13:42:50;;;;;;;;;;;36.90;29.90;;;;;;5081581;28;19920;-59
2022/08/10 13:45:19;;;;;;;;;;;37.00;29.90;;;;;;5086025;28;19912;-59
2022/08/10 13:47:47;;;;;;;;;;;37.10;29.90;;;;;;5092420;28;19961;-59
2022/08/10 13:50:25;;;;;;;;;;;37.20;29.80;;;;;;5078003;28;19923;-59
2022/08/10 13:52:55;;;;;;;;;;;37.40;29.70;;;;;;5085483;28;19916;-68
2022/08/10 13:55:21;;;;;;;;;;;37.50;29.50;;;;;;5083582;28;20003;-68
2022/08/10 13:57:50;;;;;;;;;;;37.60;29.60;;;;;;5082521;28;20010;-68
2022/08/10 14:00:16;;;;;;;;;;;37.60;29.20;;;;;;5085558;28;19916;-60
2022/08/10 14:02:51;;;;;;;;;;;37.70;29.10;;;;;;5089950;28;19981;-59
2022/08/10 14:05:33;;;;;;;;;;;37.70;28.80;;;;;;5094070;28;20379;-68
2022/08/10 14:07:59;;;;;;;;;;;37.60;29.00;;;;;;5084301;28;19924;-68
2022/08/10 14:10:33;;;;;;;;;;;37.70;28.70;;;;;;5086371;28;19948;-59
2022/08/10 14:13:01;;;;;;;;;;;37.70;28.90;;;;;;5084552;28;20343;-60
2022/08/10 14:15:29;;;;;;;;;;;37.80;29.00;;;;;;5097843;28;20002;-60
2022/08/10 14:17:56;;;;;;;;;;;37.80;28.90;;;;;;5087190;28;19912;-59
2022/08/10 14:20:25;;;;;;;;;;;37.70;28.70;;;;;;5091542;28;19912;-68
2022/08/10 14:22:58;;;;;;;;;;;37.70;28.90;;;;;;5088700;28;19996;-68
2022/08/10 14:25:23;;;;;;;;;;;37.70;28.60;;;;;;5090901;28;19991;-68
2022/08/10 14:27:49;;;;;;;;;;;37.80;29.30;;;;;;5090771;28;19994;-68
2022/08/10 14:30:15;;;;;;;;;;;37.80;28.70;;;;;;5091311;28;20387;-68
2022/08/10 14:32:46;;;;;;;;;;;37.80;28.80;;;;;;5083524;28;19912;-68
2022/08/10 14:35:13;;;;;;;;;;;37.80;28.30;;;;;;5089704;28;19916;-68
2022/08/10 14:37:47;;;;;;;;;;;37.80;28.50;;;;;;5087008;28;20232;-68
2022/08/10 14:40:13;;;;;;;;;;;37.80;28.50;;;;;;5092493;28;19919;-60